Dover, NJ

4:12 AM EDT en Agosto 21, 2014 (GMT -0400)
Copeland Middle School | Change Station
CLOSE
Current Station
Estación meteorológica personal
Location: Rockaway, NJ
Altura: 741 ft
Estaciones meteorológicas cercanas

Alt 741 ft 40.92 °N, 74.52 °W | Updated 1 minute ago

Light Rain
Lluvia débil
65.2 ° F
Sensación térmica 65.2 ° F
N
0.0
Viento Variable Viento desde SO
Gusts 0.0 mph

Hoy
Alta -- | Baja -- ° F
--% Posibilidad de precipitaciones
Ayer
Alta -- | Baja -- ° F
Precip. -- pul
6:13 AM 7:47 PM
Creciente menguante, 16% visible
Presión 30.03 pul
Visibilidad 4.0 Millas
Nubes Nublado 6000 ft
Punto de rocío 62 ° F
Humedad 90%
Precipitaciones 0.20 pul
Espesor de la nieve No disponible.
UV 0 de una escala de 12
Polen 9.70 de una escala de 12
Ozono Buena
PM2.5 Buena
Flu Activity No disponible.
METAR KMMU 210755Z AUTO 00000KT 4SM -RA OVC060 19/17 A3003 RMK AO2

More Conditions Fewer Conditions

Presión 30.03 pul
Visibilidad 4.0 Millas
Nubes Nublado 6000 ft
Punto de rocío 62 ° F
Humedad 90%
Precipitaciones 0.20 pul
Espesor de la nieve No disponible.
UV 0 de una escala de 12
Polen 9.70 de una escala de 12
Ozono Buena
PM2.5 Buena
Flu Activity No disponible.
METAR KMMU 210755Z AUTO 00000KT 4SM -RA OVC060 19/17 A3003 RMK AO2

More Conditions Fewer Conditions

10-Day Weather Forecast

Almanac

Astronomía

Aug. 21, 2014 Salida Puesta
Hora real 6:13 AM EDT 7:47 PM EDT
Crepúsculo civil 5:44 AM EDT 8:16 PM EDT
Crepúsculo náutico 5:09 AM EDT 8:51 PM EDT
Crepúsculo astronómico 4:32 AM EDT 9:28 PM EDT
Luna 2:41 AM EDT 5:15 PM EDT
Horas de luz 14h 31m
Horas de luz
13h 33m
Tomorrow will be 2m 29s shorter.
Creciente menguante, 16% of the Moon is Illuminated
Hoy
Creciente menguante
Ago 25
Nueva
Sep 2
Cuarto creciente
Sep 8
Luna llena
Sep 15
Cuarto menguante

Extremos de hoy

Máximos del estado Bajos del estado

Community

WunderPhotos

Upload Photos

1,745,867 ¡fotos cargadas!

Nearby

Calidad del aire

  Calidad del aire Índice AQ Contaminante
Ayer Moderada
OZONE
Ayer Buena
PM2.5
Real Buena
PM2.5
Real Buena
OZONE
Jueves Buena
PM2.5
Jueves Buena
OZONE

Grosos de nieve

Estación Profundido Altura
No tenemos constancia de nieve nueva.

Actividad de terremotos

Ciudad Distance Mag. Tiempo y dato
No hay informes recientes de la actividad sísmica.
Magnitud mínima muestra es 2,5.

Temperaturas de aguas costeras

Lugar Temperatura
Sin partes meteorológicos de las estaciones

Estaciones meteorológicas cercanas